Terminal Aerodrome Forecast
Issued by NWS

Home | Current Version | Previous Version | Text Only | Print | Product List | Glossary On
Versions: 1 2 3 4 5 6 7 8 9 10 11 12 13 14 15
000
FTUS43 KDVN 221200 AAA
TAFBRL
TAF AMD
KBRL 221258Z 2213/2312 20010KT P6SM VCSH SCT080
      TEMPO 2213/2215 VRB20G30KT 4SM TSRA BKN035CB
     FM221500 22012KT P6SM SCT100
     FM222100 26010KT P6SM SCT200 PROB30 2223/2303 6SM -TSRA
      BKN050CB
     FM230300 34006KT P6SM BKN150=

USA.gov is the U.S. government's official web portal to all federal, state and local government web resources and services.